createdAt,value
2022-12-15T00:00:40.865Z,0.91
2022-12-15T00:06:02.509Z,1.07
2022-12-15T00:11:23.950Z,0.91
2022-12-15T00:16:45.610Z,0.88
2022-12-15T00:22:07.096Z,0.82
2022-12-15T00:27:28.753Z,0.87
2022-12-15T00:32:51.159Z,0.83
2022-12-15T00:38:12.732Z,0.72
2022-12-15T00:43:15.749Z,0.63
2022-12-15T00:48:18.809Z,0.69
2022-12-15T00:53:41.544Z,0.51
2022-12-15T00:59:03.051Z,0.68
2022-12-15T01:04:24.701Z,0.45
2022-12-15T01:09:46.330Z,0.63
2022-12-15T01:15:07.816Z,0.45
2022-12-15T01:20:20.535Z,0.33
2022-12-15T01:25:25.844Z,0.23
2022-12-15T01:30:28.893Z,0.24
2022-12-15T01:35:32.529Z,0.18
2022-12-15T01:40:47.714Z,0.08
2022-12-15T01:46:12.056Z,0.09
2022-12-15T01:51:20.778Z,0.05
2022-12-15T01:56:26.506Z,-0.05
2022-12-15T02:01:30.183Z,-0.40
2022-12-15T02:06:33.630Z,-0.19
2022-12-15T02:12:01.541Z,-0.07
2022-12-15T02:17:23.261Z,-0.16
2022-12-15T02:22:50.935Z,-0.12
2022-12-15T02:28:02.946Z,-0.13
2022-12-15T02:33:24.506Z,-0.21
2022-12-15T02:38:35.804Z,-0.34
2022-12-15T02:43:39.317Z,-0.37
2022-12-15T02:49:08.813Z,-0.57
2022-12-15T02:54:24.488Z,-0.56
2022-12-15T02:59:45.959Z,-0.55
2022-12-15T03:04:56.742Z,-0.45
2022-12-15T03:10:03.409Z,-0.62
2022-12-15T03:15:07.080Z,-0.57
2022-12-15T03:20:10.857Z,-0.48
2022-12-15T03:25:14.001Z,-0.36
2022-12-15T03:30:17.568Z,-0.32
2022-12-15T03:35:21.078Z,-0.11
2022-12-15T03:40:24.181Z,0.02
2022-12-15T03:45:28.986Z,-0.31
2022-12-15T03:50:32.025Z,-0.04
2022-12-15T03:55:35.662Z,-0.17
2022-12-15T04:00:39.537Z,-0.05
2022-12-15T04:05:42.606Z,-0.25
2022-12-15T04:10:45.669Z,-0.19
2022-12-15T04:15:48.783Z,-0.20
2022-12-15T04:20:51.828Z,-0.25
2022-12-15T04:26:14.167Z,-0.36
2022-12-15T04:31:39.472Z,-0.53
2022-12-15T04:37:04.647Z,-0.77
2022-12-15T04:42:26.236Z,-0.88
2022-12-15T04:47:48.400Z,-1.01
2022-12-15T04:53:10.359Z,-1.06
2022-12-15T04:58:32.200Z,-1.16
2022-12-15T05:03:53.751Z,-0.96
2022-12-15T05:09:15.329Z,-0.92
2022-12-15T05:14:37.043Z,-1.05
2022-12-15T05:19:58.346Z,-0.90
2022-12-15T05:25:19.824Z,-0.85
2022-12-15T05:30:41.440Z,-0.65
2022-12-15T05:35:45.419Z,-0.70
2022-12-15T05:40:48.511Z,-0.42
2022-12-15T05:45:51.824Z,-0.02
2022-12-15T05:50:55.107Z,0.29
2022-12-15T05:56:11.865Z,0.70
2022-12-15T06:01:17.826Z,0.65
2022-12-15T06:06:21.507Z,0.57
2022-12-15T06:11:24.667Z,0.60
2022-12-15T06:16:30.619Z,0.61
2022-12-15T06:21:36.327Z,0.57
2022-12-15T06:26:40.639Z,0.72
2022-12-15T06:31:43.857Z,0.91
2022-12-15T06:36:47.020Z,0.89
2022-12-15T06:41:50.014Z,0.92
2022-12-15T06:46:53.144Z,1.35
2022-12-15T06:51:56.238Z,1.37
2022-12-15T06:56:59.205Z,1.34
2022-12-15T07:02:02.465Z,1.38
2022-12-15T07:07:05.675Z,1.78
2022-12-15T07:12:12.034Z,1.22
2022-12-15T07:17:15.096Z,1.48
2022-12-15T07:22:18.080Z,1.86
2022-12-15T07:27:43.223Z,2.17
2022-12-15T07:32:49.897Z,2.09
2022-12-15T07:37:53.646Z,2.58
2022-12-15T07:42:56.749Z,2.26
2022-12-15T07:47:59.755Z,2.56
2022-12-15T07:53:03.000Z,2.29
2022-12-15T07:58:06.049Z,2.30
2022-12-15T08:03:09.267Z,2.23
2022-12-15T08:08:15.289Z,1.70
2022-12-15T08:13:52.559Z,1.23
2022-12-15T08:18:41.751Z,1.07
2022-12-15T08:23:45.389Z,0.98
2022-12-15T08:28:48.455Z,0.67
2022-12-15T08:33:52.068Z,0.62
2022-12-15T08:38:57.757Z,0.81
2022-12-15T08:44:01.937Z,0.60
2022-12-15T08:49:05.195Z,0.99
2022-12-15T08:54:09.441Z,1.56
2022-12-15T08:59:12.553Z,1.52
2022-12-15T09:04:16.013Z,1.63
2022-12-15T09:09:19.844Z,1.89
2022-12-15T09:14:28.882Z,2.17
2022-12-15T09:19:32.646Z,2.16
2022-12-15T09:24:35.859Z,2.26
2022-12-15T09:29:38.924Z,2.04
2022-12-15T09:34:42.236Z,2.25
2022-12-15T09:39:45.212Z,1.77
2022-12-15T09:44:50.785Z,1.58
2022-12-15T09:49:59.152Z,1.71
2022-12-15T10:00:45.615Z,1.31
2022-12-15T10:06:16.069Z,1.55
2022-12-15T10:11:24.569Z,1.38
2022-12-15T10:16:51.439Z,1.51
2022-12-15T10:21:54.531Z,1.13
2022-12-15T10:27:25.036Z,1.41
2022-12-15T10:32:51.322Z,1.47
2022-12-15T10:38:00.319Z,1.47
2022-12-15T10:43:14.696Z,1.46
2022-12-15T10:48:20.774Z,1.43
2022-12-15T10:53:41.759Z,0.99
2022-12-15T10:58:52.084Z,1.24
2022-12-15T11:03:57.181Z,1.20
2022-12-15T11:09:25.725Z,1.07
2022-12-15T11:14:46.093Z,1.11
2022-12-15T11:20:02.233Z,0.82
2022-12-15T11:25:25.380Z,0.77
2022-12-15T11:30:42.772Z,0.72
2022-12-15T11:36:41.433Z,0.96
2022-12-15T11:41:56.052Z,0.69
2022-12-15T11:47:27.964Z,0.64
2022-12-15T11:52:56.094Z,0.39
2022-12-15T11:58:10.881Z,0.56
2022-12-15T12:03:38.991Z,0.45
2022-12-15T12:09:08.689Z,0.56
2022-12-15T12:19:58.190Z,0.24
2022-12-15T12:25:22.217Z,0.26
2022-12-15T12:30:29.642Z,0.34
2022-12-15T12:35:41.642Z,0.03
2022-12-15T12:46:36.586Z,-0.49
2022-12-15T12:52:05.480Z,-0.47
2022-12-15T13:02:31.331Z,-0.63
2022-12-15T13:07:42.111Z,-0.93
2022-12-15T13:12:54.191Z,-0.83
2022-12-15T13:18:06.812Z,-0.98
2022-12-15T13:23:21.901Z,-1.34
2022-12-15T13:28:38.540Z,-1.21
2022-12-15T13:33:50.731Z,-1.16
2022-12-15T13:38:56.683Z,-1.46
2022-12-15T13:44:01.565Z,-1.55
2022-12-15T13:49:37.779Z,-1.52
2022-12-15T13:54:48.465Z,-1.44
2022-12-15T14:00:05.592Z,-1.95
2022-12-15T14:05:19.275Z,-1.86
2022-12-15T14:10:30.336Z,-1.77
2022-12-15T14:15:35.722Z,-2.03
2022-12-15T14:20:43.115Z,-2.26
2022-12-15T14:26:16.597Z,-2.17
2022-12-15T14:31:24.907Z,-2.38
2022-12-15T14:36:28.972Z,-2.56
2022-12-15T14:41:44.117Z,-2.87
2022-12-15T14:46:52.102Z,-2.84
2022-12-15T14:52:02.279Z,-2.98
2022-12-15T14:57:28.738Z,-3.19
2022-12-15T15:02:31.993Z,-3.31
2022-12-15T15:07:46.341Z,-3.31
2022-12-15T15:12:49.869Z,-3.46
2022-12-15T15:17:59.329Z,-3.63
2022-12-15T15:23:08.090Z,-3.72
2022-12-15T15:28:20.283Z,-3.74
2022-12-15T15:33:23.986Z,-3.74
2022-12-15T15:38:33.931Z,-3.81
2022-12-15T15:43:37.371Z,-3.87
2022-12-15T15:48:54.300Z,-4.08
2022-12-15T15:54:01.460Z,-4.07
2022-12-15T15:59:12.438Z,-4.22
2022-12-15T16:04:15.661Z,-4.10
2022-12-15T16:09:18.772Z,-3.94
2022-12-15T16:14:21.910Z,-3.95
2022-12-15T16:19:27.992Z,-4.24
2022-12-15T16:24:31.110Z,-4.16
2022-12-15T16:29:34.337Z,-4.15
2022-12-15T16:34:37.397Z,-3.98
2022-12-15T16:39:40.604Z,-3.91
2022-12-15T16:44:43.791Z,-3.68
2022-12-15T16:49:47.052Z,-3.94
2022-12-15T16:54:51.025Z,-3.50
2022-12-15T16:59:54.128Z,-3.43
2022-12-15T17:04:57.193Z,-3.38
2022-12-15T17:10:00.239Z,-3.36
2022-12-15T17:15:09.281Z,-3.43
2022-12-15T17:20:30.532Z,-3.13
2022-12-15T17:31:06.176Z,-3.25
2022-12-15T17:36:29.463Z,-3.17
2022-12-15T17:41:58.660Z,-3.30
2022-12-15T17:46:55.618Z,-3.76
2022-12-15T17:52:02.743Z,-3.82
2022-12-15T17:57:05.793Z,-3.74
2022-12-15T18:02:13.442Z,-3.76
2022-12-15T18:07:19.886Z,-3.88
2022-12-15T18:12:26.467Z,-3.86
2022-12-15T18:17:29.572Z,-3.63
2022-12-15T18:22:32.603Z,-3.39
2022-12-15T18:27:35.630Z,-3.46
2022-12-15T18:32:42.319Z,-3.15
2022-12-15T18:37:45.721Z,-3.03
2022-12-15T18:42:49.363Z,-2.77
2022-12-15T18:47:54.357Z,-2.83
2022-12-15T18:53:05.447Z,-3.24
2022-12-15T18:58:28.985Z,-3.23
2022-12-15T19:03:33.200Z,-3.30
2022-12-15T19:08:38.911Z,-3.36
2022-12-15T19:13:41.945Z,-3.53
2022-12-15T19:19:04.179Z,-3.24
2022-12-15T19:24:11.228Z,-3.18
2022-12-15T19:29:22.952Z,-3.06
2022-12-15T19:34:25.965Z,-2.73
2022-12-15T19:39:30.510Z,-2.74
2022-12-15T19:44:33.453Z,-2.70
2022-12-15T19:49:36.486Z,-2.84
2022-12-15T19:54:40.082Z,-2.66
2022-12-15T19:59:43.157Z,-2.75
2022-12-15T20:04:47.632Z,-2.72
2022-12-15T20:09:50.678Z,-2.43
2022-12-15T20:20:14.423Z,-2.75
2022-12-15T20:25:20.350Z,-2.83
2022-12-15T20:30:30.216Z,-2.78
2022-12-15T20:35:35.864Z,-2.99
2022-12-15T20:40:38.910Z,-2.91
2022-12-15T20:45:42.118Z,-3.15
2022-12-15T20:56:05.077Z,-2.84
2022-12-15T21:01:24.572Z,-2.86
2022-12-15T21:06:28.999Z,-2.83
2022-12-15T21:11:33.387Z,-2.78
2022-12-15T21:16:36.435Z,-2.89
2022-12-15T21:21:43.967Z,-2.67
2022-12-15T21:26:47.411Z,-2.84
2022-12-15T21:31:51.114Z,-2.61
2022-12-15T21:36:55.052Z,-2.57
2022-12-15T21:42:00.574Z,-2.40
2022-12-15T21:47:48.261Z,-2.25
2022-12-15T21:52:51.577Z,-2.32
2022-12-15T21:57:57.892Z,-2.08
2022-12-15T22:03:01.209Z,-2.10
2022-12-15T22:08:16.367Z,-2.04
2022-12-15T22:13:21.562Z,-2.10
2022-12-15T22:18:24.553Z,-2.11
2022-12-15T22:23:27.592Z,-1.92
2022-12-15T22:28:30.826Z,-1.87
2022-12-15T22:33:39.713Z,-1.97
2022-12-15T22:38:48.794Z,-1.84
2022-12-15T22:43:54.911Z,-1.90
2022-12-15T22:48:58.017Z,-1.78
2022-12-15T22:54:01.818Z,-1.76
2022-12-15T22:59:10.750Z,-1.57
2022-12-15T23:09:32.396Z,-1.76
2022-12-15T23:14:53.621Z,-1.68
2022-12-15T23:19:57.947Z,-1.71
2022-12-15T23:25:00.904Z,-1.57
2022-12-15T23:30:04.694Z,-1.35
2022-12-15T23:35:07.972Z,-1.30
2022-12-15T23:40:11.526Z,-1.28
2022-12-15T23:45:16.339Z,-1.04
2022-12-15T23:50:19.538Z,-1.14
2022-12-15T23:55:22.586Z,-1.07
